Time;durP1;ratioP1;P1;durP2;ratioP2;P2;SDS_P1;SDS_P2;PMS_P1;PMS_P2;Temp;Humidity;BMP_temperature;BMP_pressure;BME280_temperature;BME280_humidity;BME280_pressure;Samples;Min_cycle;Max_cycle;Signal;HPM_P1;HPM_P2
2023/01/22 00:02:05;;;;;;;14.73;10.27;;;;;;;3.46;58.33;98115.63;5034385;28;20186;-73
2023/01/22 00:04:31;;;;;;;16.73;10.60;;;;;;;3.47;58.54;98116.44;5052982;28;20179;-74
2023/01/22 00:06:56;;;;;;;13.87;10.00;;;;;;;3.42;58.54;98111.50;5051562;28;20581;-72
2023/01/22 00:09:22;;;;;;;15.67;10.53;;;;;;;3.47;58.48;98114.69;5051973;28;20516;-73
2023/01/22 00:11:48;;;;;;;15.13;10.53;;;;;;;3.46;58.30;98107.00;5057880;28;20179;-72
2023/01/22 00:14:14;;;;;;;16.60;10.50;;;;;;;3.43;58.83;98113.19;5053342;28;20270;-72
2023/01/22 00:16:40;;;;;;;16.53;10.57;;;;;;;3.42;58.65;98111.50;5048096;28;20533;-69
2023/01/22 00:19:06;;;;;;;14.63;10.10;;;;;;;3.50;58.61;98109.34;5047836;28;20657;-70
2023/01/22 00:21:31;;;;;;;15.30;10.53;;;;;;;3.47;58.01;98104.31;5051307;28;20472;-69
2023/01/22 00:23:56;;;;;;;14.47;10.30;;;;;;;3.41;58.10;98099.47;5051602;28;20425;-70
2023/01/22 00:26:22;;;;;;;18.30;11.30;;;;;;;3.44;57.96;98104.50;5050136;28;20340;-69
2023/01/22 00:28:47;;;;;;;14.87;10.23;;;;;;;3.48;58.86;98106.00;5051400;28;20286;-70
2023/01/22 00:31:15;;;;;;;13.70;9.57;;;;;;;3.49;58.44;98102.50;5054324;28;20221;-70
2023/01/22 00:33:42;;;;;;;15.30;10.60;;;;;;;3.48;58.48;98100.81;5055454;28;20171;-73
2023/01/22 00:36:13;;;;;;;14.90;10.20;;;;;;;3.47;58.65;98093.97;5054483;28;20952;-71
2023/01/22 00:38:39;;;;;;;14.10;9.60;;;;;;;3.54;58.30;98089.25;5054675;28;20421;-71
2023/01/22 00:41:06;;;;;;;13.20;10.20;;;;;;;3.53;57.62;98091.00;5057065;28;20781;-73
2023/01/22 00:43:33;;;;;;;15.80;10.60;;;;;;;3.52;58.19;98089.38;5054809;28;20178;-72
2023/01/22 00:45:59;;;;;;;14.60;10.00;;;;;;;3.49;58.07;98093.84;5054533;28;20468;-72
2023/01/22 00:48:24;;;;;;;17.33;10.83;;;;;;;3.51;58.00;98097.19;5046385;28;20461;-72
2023/01/22 00:50:50;;;;;;;17.03;11.10;;;;;;;3.52;58.37;98094.53;5054947;28;20174;-73
2023/01/22 00:53:15;;;;;;;14.33;10.87;;;;;;;3.49;58.55;98091.25;5054221;28;20611;-72
2023/01/22 00:55:50;;;;;;;16.20;11.20;;;;;;;3.50;58.44;98092.94;5054333;28;20218;-72
2023/01/22 00:58:15;;;;;;;14.53;10.10;;;;;;;3.48;58.33;98095.63;5052922;28;20170;-72
2023/01/22 01:00:41;;;;;;;16.03;10.40;;;;;;;3.56;58.09;98089.16;5053325;28;20530;-71
2023/01/22 01:05:50;;;;;;;14.67;10.23;;;;;;;3.57;58.03;98094.28;5053751;28;20199;-71
2023/01/22 01:08:16;;;;;;;15.20;9.97;;;;;;;3.55;58.44;98096.13;5053758;28;20486;-71
2023/01/22 01:10:41;;;;;;;13.70;9.53;;;;;;;3.55;57.85;98093.53;5050492;28;20262;-71
2023/01/22 01:13:06;;;;;;;15.27;10.60;;;;;;;3.57;57.86;98093.44;5054601;28;20209;-71
2023/01/22 01:15:33;;;;;;;16.40;10.40;;;;;;;3.61;58.35;98097.53;5054678;28;20903;-71
2023/01/22 01:17:59;;;;;;;16.80;11.30;;;;;;;3.57;58.18;98098.63;5046769;28;20692;-71
2023/01/22 01:20:24;;;;;;;15.20;10.30;;;;;;;3.53;57.67;98098.78;5054102;28;20508;-72
2023/01/22 01:22:50;;;;;;;13.57;9.70;;;;;;;3.53;58.40;98096.19;5046445;28;20523;-73
2023/01/22 01:25:15;;;;;;;16.90;10.77;;;;;;;3.56;58.73;98096.94;5052517;28;20203;-72
2023/01/22 01:27:41;;;;;;;13.60;9.17;;;;;;;3.56;58.25;98102.97;5053570;28;20211;-72
2023/01/22 01:30:07;;;;;;;16.50;10.63;;;;;;;3.57;58.40;98103.81;5053687;28;20183;-73
2023/01/22 01:32:32;;;;;;;17.30;10.93;;;;;;;3.58;58.49;98103.72;5045755;28;20183;-72
2023/01/22 01:34:58;;;;;;;15.00;10.80;;;;;;;3.61;58.72;98100.13;5053648;28;20460;-72
2023/01/22 01:37:23;;;;;;;15.30;10.90;;;;;;;3.65;58.35;98086.91;5052206;28;20654;-73
2023/01/22 01:39:51;;;;;;;14.60;9.77;;;;;;;3.69;58.32;98082.38;5053642;28;20182;-71
2023/01/22 01:42:25;;;;;;;13.83;9.93;;;;;;;3.67;58.15;98095.44;5055075;28;20176;-72
2023/01/22 01:45:29;;;;;;;15.30;9.37;;;;;;;3.65;57.44;98093.84;5053593;28;20437;-73
2023/01/22 01:48:16;;;;;;;13.23;10.13;;;;;;;3.62;58.44;98100.03;5012690;28;20526;-72
2023/01/22 01:50:45;;;;;;;16.40;9.93;;;;;;;3.64;58.44;98094.78;5052574;28;20586;-71
2023/01/22 01:53:11;;;;;;;15.07;10.70;;;;;;;3.73;57.95;98094.25;5052140;28;20955;-72
2023/01/22 01:55:38;;;;;;;13.97;10.37;;;;;;;3.64;58.37;98085.22;5051957;28;20449;-73
2023/01/22 01:58:09;;;;;;;17.63;10.57;;;;;;;3.62;58.92;98083.66;5035425;28;20643;-70
2023/01/22 02:00:35;;;;;;;15.80;11.17;;;;;;;3.64;58.78;98092.19;5055734;28;20470;-70
2023/01/22 02:03:01;;;;;;;16.60;11.00;;;;;;;3.69;58.38;98084.97;5055745;28;20791;-70
2023/01/22 02:05:30;;;;;;;17.43;10.40;;;;;;;3.74;58.02;98088.13;5051779;28;20449;-72
2023/01/22 02:07:55;;;;;;;13.60;10.37;;;;;;;3.68;58.67;98088.47;5052930;28;20195;-71
2023/01/22 02:10:21;;;;;;;15.10;11.00;;;;;;;3.71;58.40;98085.72;5053168;28;20555;-71
2023/01/22 02:12:46;;;;;;;16.60;10.60;;;;;;;3.71;58.13;98090.91;5052836;28;20187;-70
2023/01/22 02:15:12;;;;;;;14.30;10.87;;;;;;;3.79;58.59;98093.88;5052234;28;20254;-70
2023/01/22 02:17:38;;;;;;;14.53;10.90;;;;;;;3.75;58.11;98079.44;5027393;28;20240;-72
2023/01/22 02:20:03;;;;;;;15.03;11.07;;;;;;;3.77;58.63;98090.56;5058941;28;20429;-72
2023/01/22 02:22:31;;;;;;;15.70;10.93;;;;;;;3.76;58.63;98080.25;5053349;28;20689;-71
2023/01/22 02:24:57;;;;;;;16.60;11.37;;;;;;;3.73;58.37;98090.78;5051812;28;20191;-72
2023/01/22 02:27:22;;;;;;;15.17;11.27;;;;;;;3.77;58.95;98084.53;5052371;28;20453;-71
2023/01/22 02:29:48;;;;;;;15.90;11.23;;;;;;;3.80;58.77;98085.19;5052605;28;20181;-70
2023/01/22 02:32:13;;;;;;;15.20;10.50;;;;;;;3.74;58.33;98080.34;5051649;28;20195;-71
2023/01/22 02:34:39;;;;;;;16.60;11.50;;;;;;;3.81;58.78;98080.84;5051512;28;20206;-70
2023/01/22 02:37:05;;;;;;;13.43;10.17;;;;;;;3.83;57.99;98079.00;5051963;28;20659;-71
2023/01/22 02:39:30;;;;;;;17.10;11.57;;;;;;;3.77;58.46;98075.00;5051293;28;20201;-71
2023/01/22 02:41:56;;;;;;;16.57;11.70;;;;;;;3.83;58.56;98076.41;5054935;28;20866;-72
2023/01/22 02:44:21;;;;;;;15.77;10.50;;;;;;;3.82;58.18;98072.97;5050996;28;20191;-72
2023/01/22 02:46:47;;;;;;;14.27;10.90;;;;;;;3.79;58.43;98078.31;5046945;28;20768;-72
2023/01/22 02:49:12;;;;;;;16.53;11.10;;;;;;;3.86;58.96;98080.56;5049926;28;20262;-72
2023/01/22 02:51:38;;;;;;;14.83;11.37;;;;;;;3.90;58.50;98066.50;5022421;28;20178;-71
2023/01/22 02:54:03;;;;;;;15.30;11.47;;;;;;;3.87;58.31;98080.47;5055863;28;20175;-71
2023/01/22 02:56:29;;;;;;;14.87;11.90;;;;;;;3.90;58.30;98074.28;5051561;28;20735;-71
2023/01/22 02:58:54;;;;;;;13.77;10.30;;;;;;;3.76;58.67;98088.03;5057762;28;20175;-72
2023/01/22 03:01:22;;;;;;;18.07;11.87;;;;;;;3.81;58.65;98079.06;5052132;28;20183;-72
2023/01/22 03:03:52;;;;;;;18.37;11.90;;;;;;;3.89;58.57;98072.63;5052155;28;20270;-72
2023/01/22 03:06:20;;;;;;;19.27;12.23;;;;;;;3.93;59.04;98072.34;5048760;28;20430;-71
2023/01/22 03:08:56;;;;;;;14.63;10.63;;;;;;;3.92;58.48;98072.41;5052213;28;20493;-71
2023/01/22 03:11:23;;;;;;;14.70;10.80;;;;;;;3.93;57.92;98069.75;5050021;28;20437;-71
2023/01/22 03:22:02;;;;;;;12.90;10.10;;;;;;;3.92;58.61;98059.44;5051782;28;20476;-72
2023/01/22 03:24:28;;;;;;;15.37;10.70;;;;;;;3.91;58.81;98055.19;5051511;28;20418;-73
2023/01/22 03:26:53;;;;;;;15.50;11.20;;;;;;;3.87;58.66;98058.91;5051045;28;20215;-73
2023/01/22 03:29:19;;;;;;;15.63;11.20;;;;;;;3.94;58.45;98055.88;5051342;28;20183;-72
2023/01/22 03:31:47;;;;;;;13.67;10.07;;;;;;;4.01;58.78;98061.53;5051064;28;20698;-70
2023/01/22 03:34:14;;;;;;;13.60;10.57;;;;;;;4.02;58.56;98071.00;5051095;28;20688;-70
2023/01/22 03:36:40;;;;;;;17.97;10.97;;;;;;;4.00;58.58;98065.88;5051388;28;20483;-71
2023/01/22 03:39:05;;;;;;;14.37;10.67;;;;;;;3.99;58.58;98069.38;5051701;28;20452;-70
2023/01/22 03:41:31;;;;;;;18.87;11.53;;;;;;;4.00;58.09;98070.22;5053583;28;20217;-70
2023/01/22 03:44:00;;;;;;;16.70;11.43;;;;;;;4.02;58.07;98073.56;5049899;28;20187;-71
2023/01/22 03:46:26;;;;;;;13.97;10.60;;;;;;;4.04;58.85;98071.69;5048781;28;20213;-70
2023/01/22 03:48:51;;;;;;;18.77;11.80;;;;;;;4.00;58.55;98070.22;5045309;28;20433;-70
2023/01/22 03:51:17;;;;;;;14.67;10.70;;;;;;;4.05;58.26;98065.59;5049786;28;20806;-70
2023/01/22 03:53:43;;;;;;;18.70;12.50;;;;;;;3.96;58.32;98068.72;5051857;28;20228;-71
2023/01/22 03:56:15;;;;;;;19.60;12.37;;;;;;;3.93;58.63;98068.91;5050319;28;20690;-70
2023/01/22 03:58:41;;;;;;;16.40;11.77;;;;;;;3.96;58.53;98068.72;5051593;28;20429;-70
2023/01/22 04:01:11;;;;;;;15.90;11.70;;;;;;;3.95;58.72;98074.84;5051752;28;20429;-72
2023/01/22 04:03:37;;;;;;;15.67;11.50;;;;;;;3.97;58.70;98075.59;5043862;28;20203;-71
2023/01/22 04:06:03;;;;;;;18.00;12.07;;;;;;;3.97;58.51;98076.41;5058596;28;21132;-70
2023/01/22 04:08:29;;;;;;;17.37;11.60;;;;;;;3.98;58.05;98072.06;5051155;28;20556;-71
2023/01/22 04:10:56;;;;;;;19.93;12.30;;;;;;;3.95;58.70;98073.09;5052039;28;20917;-71
2023/01/22 04:13:22;;;;;;;15.73;12.13;;;;;;;4.00;58.45;98072.81;5051472;28;20464;-70
2023/01/22 04:15:47;;;;;;;18.40;12.90;;;;;;;3.95;58.31;98078.28;5052208;28;20850;-70
2023/01/22 04:18:13;;;;;;;14.90;11.63;;;;;;;4.00;58.95;98072.81;5050226;28;20474;-70
2023/01/22 04:20:38;;;;;;;17.47;11.40;;;;;;;4.10;58.39;98066.16;5051266;28;20650;-71
2023/01/22 04:23:05;;;;;;;18.50;12.77;;;;;;;4.00;58.31;98075.41;5051477;28;20171;-71
2023/01/22 04:25:30;;;;;;;19.13;12.20;;;;;;;4.01;58.52;98077.09;5051012;28;20203;-70
2023/01/22 04:27:56;;;;;;;17.20;11.60;;;;;;;4.03;58.57;98075.25;5048970;28;20464;-70
2023/01/22 04:30:21;;;;;;;20.60;12.27;;;;;;;4.11;58.46;98075.63;5050715;28;20190;-70
2023/01/22 04:32:46;;;;;;;17.83;11.80;;;;;;;4.08;58.69;98070.59;5050886;28;20734;-70
2023/01/22 04:35:12;;;;;;;17.67;11.83;;;;;;;3.87;58.97;98072.69;5059255;28;20550;-70
2023/01/22 04:37:37;;;;;;;16.93;12.20;;;;;;;4.00;58.76;98070.22;5050829;28;20175;-71
2023/01/22 04:40:04;;;;;;;18.77;12.27;;;;;;;3.98;58.71;98079.84;5050770;28;20176;-70
2023/01/22 04:42:31;;;;;;;18.40;12.50;;;;;;;3.93;59.21;98080.13;5051221;28;20655;-69
2023/01/22 04:44:56;;;;;;;16.80;11.70;;;;;;;3.93;58.80;98068.91;5049234;28;20426;-70
2023/01/22 04:47:22;;;;;;;20.37;13.60;;;;;;;3.89;59.35;98083.00;5042095;28;20496;-69
2023/01/22 04:49:47;;;;;;;19.17;13.37;;;;;;;3.83;59.61;98085.00;5050831;28;20217;-69
2023/01/22 04:52:13;;;;;;;17.77;12.17;;;;;;;3.89;59.42;98081.22;5047552;28;20325;-72
2023/01/22 04:54:38;;;;;;;17.90;12.30;;;;;;;3.89;59.13;98083.00;5061773;28;20260;-72
2023/01/22 04:57:04;;;;;;;17.70;12.00;;;;;;;3.99;59.46;98089.31;5054627;28;20273;-70
2023/01/22 04:59:29;;;;;;;16.50;12.47;;;;;;;3.99;59.12;98091.91;5031471;28;20218;-70
2023/01/22 05:01:55;;;;;;;20.50;12.83;;;;;;;4.03;58.95;98089.97;5064980;28;20765;-69
2023/01/22 05:04:20;;;;;;;17.87;12.50;;;;;;;3.98;59.39;98095.44;5062933;28;20274;-72
2023/01/22 05:06:46;;;;;;;18.57;11.77;;;;;;;4.00;59.16;98099.59;5050772;28;20211;-69
2023/01/22 05:09:12;;;;;;;20.07;12.67;;;;;;;3.97;58.63;98106.72;5050878;28;20183;-72
2023/01/22 05:11:37;;;;;;;18.73;12.23;;;;;;;4.04;58.74;98097.66;5033844;28;20522;-71
2023/01/22 05:14:03;;;;;;;17.80;11.70;;;;;;;4.13;59.18;98104.91;5047673;28;20191;-69
2023/01/22 05:16:29;;;;;;;18.97;12.33;;;;;;;4.15;58.66;98105.66;5062619;28;20205;-71
2023/01/22 05:18:54;;;;;;;15.67;11.40;;;;;;;4.02;58.13;98109.91;5074355;28;20186;-70
2023/01/22 05:21:19;;;;;;;16.67;12.23;;;;;;;3.92;58.96;98114.78;5055533;28;20190;-71
2023/01/22 05:23:45;;;;;;;19.73;13.60;;;;;;;4.05;59.40;98117.47;5051373;28;20716;-71
2023/01/22 05:26:11;;;;;;;20.53;13.87;;;;;;;4.13;58.60;98111.84;5054578;28;20709;-70
2023/01/22 05:28:36;;;;;;;17.63;12.13;;;;;;;4.21;59.14;98121.78;5057993;28;20242;-70
2023/01/22 05:31:01;;;;;;;16.73;11.60;;;;;;;4.17;59.22;98117.69;5044514;28;20195;-70
2023/01/22 05:33:30;;;;;;;18.43;13.13;;;;;;;4.19;58.53;98126.22;5062253;28;20259;-71
2023/01/22 05:36:00;;;;;;;16.40;12.03;;;;;;;4.21;58.76;98119.19;5073238;28;20198;-71
2023/01/22 05:38:27;;;;;;;17.43;12.90;;;;;;;4.25;58.47;98118.09;5061950;28;20797;-70
2023/01/22 05:40:52;;;;;;;19.17;13.00;;;;;;;4.21;58.09;98124.38;5059517;28;20422;-70
2023/01/22 05:43:18;;;;;;;19.40;12.77;;;;;;;4.18;58.67;98129.75;5073485;28;20961;-71
2023/01/22 05:45:43;;;;;;;17.30;12.60;;;;;;;4.20;58.58;98125.31;5073717;28;20299;-70
2023/01/22 05:48:09;;;;;;;23.63;13.83;;;;;;;4.26;58.39;98128.38;5061420;28;20198;-70
2023/01/22 05:50:35;;;;;;;19.30;13.43;;;;;;;4.25;58.45;98133.66;5070016;28;20242;-69
2023/01/22 05:53:01;;;;;;;18.87;12.80;;;;;;;4.23;58.53;98127.72;5068741;28;20238;-69
2023/01/22 05:55:26;;;;;;;20.13;13.73;;;;;;;4.21;58.93;98130.41;5068976;28;21057;-70
2023/01/22 05:57:52;;;;;;;16.87;12.23;;;;;;;4.26;58.62;98132.75;5055580;28;20175;-70
2023/01/22 06:00:17;;;;;;;19.03;12.60;;;;;;;4.27;59.18;98131.81;5055682;28;20187;-69
2023/01/22 06:02:43;;;;;;;18.90;13.17;;;;;;;4.29;58.52;98135.13;5073285;28;20186;-70
2023/01/22 06:05:08;;;;;;;19.10;13.30;;;;;;;4.31;58.75;98133.28;5072732;28;20186;-69
2023/01/22 06:07:34;;;;;;;19.47;12.43;;;;;;;4.29;58.15;98129.94;5070888;28;20206;-73
2023/01/22 06:09:59;;;;;;;17.43;12.57;;;;;;;4.19;58.99;98141.78;5058846;28;20753;-73
2023/01/22 06:12:25;;;;;;;18.40;12.60;;;;;;;4.19;59.34;98146.97;5071928;28;20652;-70
2023/01/22 06:14:52;;;;;;;19.47;12.80;;;;;;;4.24;59.60;98134.59;5071565;28;20178;-70
2023/01/22 06:17:17;;;;;;;19.03;12.17;;;;;;;4.24;58.56;98139.78;5071041;28;20201;-68
2023/01/22 06:19:42;;;;;;;17.80;11.80;;;;;;;4.26;58.63;98137.94;5053641;28;20471;-71
2023/01/22 06:22:08;;;;;;;17.17;12.17;;;;;;;4.32;58.84;98137.56;5069422;28;20274;-71
2023/01/22 06:24:33;;;;;;;16.80;11.73;;;;;;;4.35;58.56;98147.78;5072664;28;20183;-70
2023/01/22 06:26:59;;;;;;;16.30;11.83;;;;;;;4.34;58.77;98140.91;5061448;28;20648;-71
2023/01/22 06:29:24;;;;;;;16.63;11.53;;;;;;;4.29;59.04;98154.16;5049148;28;20194;-71
2023/01/22 06:31:50;;;;;;;16.97;12.90;;;;;;;4.27;58.96;98147.41;5065752;28;20198;-70
2023/01/22 06:34:15;;;;;;;20.73;13.23;;;;;;;4.28;58.79;98156.84;5072319;28;20741;-71
2023/01/22 06:36:41;;;;;;;16.20;12.10;;;;;;;4.34;58.85;98151.28;5059319;28;20236;-71
2023/01/22 06:39:06;;;;;;;16.40;11.73;;;;;;;4.39;59.00;98148.41;5064275;28;20293;-71
2023/01/22 06:41:32;;;;;;;17.43;12.97;;;;;;;4.29;58.74;98155.91;5062718;28;20267;-72
2023/01/22 06:43:57;;;;;;;17.80;12.33;;;;;;;4.31;59.34;98159.25;5062732;28;20179;-69
2023/01/22 06:46:23;;;;;;;20.60;13.43;;;;;;;4.30;59.61;98161.03;5070500;28;20202;-71
2023/01/22 06:48:48;;;;;;;16.40;12.10;;;;;;;4.29;59.16;98164.53;5058858;28;20616;-71
2023/01/22 06:51:14;;;;;;;18.47;13.30;;;;;;;4.33;59.54;98169.56;5063115;28;20204;-70
2023/01/22 06:53:39;;;;;;;20.10;14.13;;;;;;;4.35;59.62;98170.31;5056440;28;20660;-72
2023/01/22 06:56:05;;;;;;;22.53;16.00;;;;;;;4.30;58.88;98165.34;5072393;28;20202;-72
2023/01/22 06:58:31;;;;;;;30.23;17.70;;;;;;;4.22;59.68;98177.97;5065929;28;20188;-73
2023/01/22 07:01:00;;;;;;;22.20;15.97;;;;;;;4.24;60.03;98176.94;5065145;28;20416;-71
2023/01/22 07:03:26;;;;;;;25.50;17.43;;;;;;;4.08;60.47;98178.75;5070623;28;20248;-71
2023/01/22 07:05:57;;;;;;;46.13;31.23;;;;;;;3.92;60.99;98176.19;5072164;28;20444;-70
2023/01/22 07:08:22;;;;;;;29.70;20.00;;;;;;;3.96;60.87;98183.72;5070592;28;20199;-72
2023/01/22 07:10:48;;;;;;;26.23;16.20;;;;;;;4.01;60.75;98183.47;5064435;28;20992;-71
2023/01/22 07:13:14;;;;;;;24.50;17.63;;;;;;;3.81;61.13;98184.56;5062686;28;20191;-72
2023/01/22 07:15:40;;;;;;;27.00;18.30;;;;;;;3.68;62.17;98184.41;5064841;28;20200;-72
2023/01/22 07:18:06;;;;;;;24.57;15.50;;;;;;;3.84;61.56;98187.84;5068774;28;20413;-70
2023/01/22 07:20:31;;;;;;;22.53;15.10;;;;;;;3.78;61.62;98187.34;5065647;28;20508;-71
2023/01/22 07:22:58;;;;;;;21.03;13.63;;;;;;;3.65;61.62;98190.59;5072027;28;20223;-72
2023/01/22 07:25:24;;;;;;;26.33;16.40;;;;;;;3.72;62.20;98190.28;5060454;28;20186;-72
2023/01/22 07:27:49;;;;;;;22.50;14.97;;;;;;;3.76;61.38;98200.41;5065685;28;20465;-70
2023/01/22 07:30:15;;;;;;;22.57;14.37;;;;;;;3.84;61.20;98202.56;5060144;28;20429;-72
2023/01/22 07:32:41;;;;;;;23.67;15.67;;;;;;;3.96;61.01;98203.63;5075379;28;20208;-73
2023/01/22 07:35:07;;;;;;;27.73;14.40;;;;;;;4.07;60.63;98208.22;5047545;28;20183;-70
2023/01/22 07:37:32;;;;;;;20.73;13.67;;;;;;;4.01;61.20;98206.81;5054973;28;20691;-71
2023/01/22 07:39:57;;;;;;;21.13;14.17;;;;;;;4.11;60.26;98197.56;5065845;28;20643;-71
2023/01/22 07:42:23;;;;;;;21.03;13.63;;;;;;;4.17;60.42;98211.09;5059343;28;20693;-73
2023/01/22 07:44:48;;;;;;;18.90;13.60;;;;;;;4.20;60.49;98201.41;5066666;28;20631;-71
2023/01/22 07:47:14;;;;;;;27.30;16.10;;;;;;;4.21;61.08;98202.22;5070615;28;20253;-72
2023/01/22 07:49:39;;;;;;;96.30;44.50;;;;;;;4.25;60.53;98207.16;5067179;28;20324;-72
2023/01/22 07:52:05;;;;;;;34.70;20.63;;;;;;;4.23;60.34;98205.59;5059691;28;20277;-71
2023/01/22 07:54:34;;;;;;;20.63;14.03;;;;;;;4.26;60.25;98202.81;5071039;28;20201;-71
2023/01/22 07:57:00;;;;;;;23.90;14.30;;;;;;;4.20;60.38;98206.59;5069888;28;20863;-71
2023/01/22 07:59:26;;;;;;;29.63;19.50;;;;;;;4.25;60.80;98209.75;5070370;28;20425;-71
2023/01/22 08:01:53;;;;;;;42.80;27.73;;;;;;;4.25;60.59;98209.75;5064314;28;20545;-73
2023/01/22 08:04:18;;;;;;;31.27;18.27;;;;;;;4.25;60.65;98217.53;5070390;28;20190;-71
2023/01/22 08:06:44;;;;;;;52.13;33.30;;;;;;;4.34;60.40;98213.59;5063142;28;20440;-72
2023/01/22 08:09:09;;;;;;;31.40;21.30;;;;;;;4.40;60.60;98204.59;5047877;28;20187;-71
2023/01/22 08:11:35;;;;;;;30.13;19.53;;;;;;;4.40;60.19;98213.25;5052156;28;20196;-72
2023/01/22 08:14:00;;;;;;;29.47;18.17;;;;;;;4.30;60.01;98212.06;5044097;28;20589;-72
2023/01/22 08:16:25;;;;;;;22.50;15.70;;;;;;;4.13;60.52;98221.69;5042469;28;20219;-73
2023/01/22 08:18:51;;;;;;;25.13;17.43;;;;;;;4.22;60.81;98224.66;5037227;28;20263;-71
2023/01/22 08:21:16;;;;;;;24.00;15.67;;;;;;;4.20;60.45;98222.16;5038206;28;20221;-71
2023/01/22 08:23:42;;;;;;;23.33;14.93;;;;;;;4.05;61.36;98225.63;5038163;28;20244;-72
2023/01/22 08:26:07;;;;;;;22.80;15.30;;;;;;;4.22;60.66;98240.25;5058248;28;20740;-72
2023/01/22 08:28:33;;;;;;;27.10;17.40;;;;;;;4.28;60.60;98235.53;5069793;28;20734;-74
2023/01/22 08:31:00;;;;;;;25.37;16.83;;;;;;;4.33;61.17;98237.88;5065454;28;20282;-72
2023/01/22 08:33:26;;;;;;;25.57;17.20;;;;;;;4.41;60.92;98235.66;5063527;28;20214;-72
2023/01/22 08:35:53;;;;;;;56.43;35.27;;;;;;;4.50;60.23;98249.06;5071048;28;20536;-70
2023/01/22 08:38:18;;;;;;;42.20;30.10;;;;;;;4.53;60.03;98249.72;5070849;28;20415;-71
2023/01/22 08:40:48;;;;;;;29.13;20.20;;;;;;;4.52;59.88;98255.00;5063408;28;20812;-71
2023/01/22 08:43:14;;;;;;;24.83;16.60;;;;;;;4.51;60.88;98255.91;5063746;28;20182;-71
2023/01/22 08:45:39;;;;;;;22.47;15.50;;;;;;;4.51;60.10;98258.50;5070860;28;20517;-72
2023/01/22 08:48:05;;;;;;;23.20;14.27;;;;;;;4.54;60.52;98260.91;5070602;28;20544;-71
2023/01/22 08:50:30;;;;;;;23.63;14.97;;;;;;;4.50;59.91;98255.06;5065655;28;20174;-71
2023/01/22 08:52:56;;;;;;;22.43;15.00;;;;;;;4.60;59.84;98255.38;5068863;28;20236;-72
2023/01/22 08:55:22;;;;;;;23.30;16.33;;;;;;;4.59;59.68;98262.34;5067653;28;20190;-71
2023/01/22 08:57:54;;;;;;;21.40;14.40;;;;;;;4.65;59.83;98248.16;5079713;28;20412;-71
2023/01/22 09:00:21;;;;;;;20.97;14.27;;;;;;;4.69;59.99;98260.03;5051280;28;20190;-72
2023/01/22 09:02:46;;;;;;;20.97;14.07;;;;;;;4.71;59.91;98260.78;5067390;28;20793;-70
2023/01/22 09:05:11;;;;;;;20.07;14.10;;;;;;;4.71;59.33;98258.19;5067765;28;20428;-71
2023/01/22 09:07:37;;;;;;;22.30;14.50;;;;;;;4.78;59.74;98260.44;5075213;28;20296;-72
2023/01/22 09:10:06;;;;;;;19.37;14.23;;;;;;;4.72;59.51;98257.25;5067009;28;20270;-72
2023/01/22 09:12:32;;;;;;;19.87;13.77;;;;;;;4.79;59.42;98259.50;5050298;28;20186;-72
2023/01/22 09:14:58;;;;;;;17.07;13.37;;;;;;;4.74;58.96;98263.22;5071003;28;20430;-71
2023/01/22 09:17:23;;;;;;;22.57;14.23;;;;;;;4.73;59.48;98255.50;5064822;28;20960;-72
2023/01/22 09:19:49;;;;;;;21.10;14.30;;;;;;;4.72;59.47;98265.06;5060847;28;20191;-71
2023/01/22 09:22:14;;;;;;;20.83;14.27;;;;;;;4.81;59.20;98260.25;5071745;28;20231;-72
2023/01/22 09:24:40;;;;;;;19.20;14.47;;;;;;;4.86;58.56;98263.41;5074139;28;20194;-72
2023/01/22 09:27:07;;;;;;;18.43;12.93;;;;;;;4.83;58.81;98268.78;5073741;28;20301;-72
2023/01/22 09:29:32;;;;;;;18.70;12.80;;;;;;;4.84;58.85;98263.50;5074365;28;20545;-72
2023/01/22 09:31:58;;;;;;;20.00;14.27;;;;;;;4.91;59.26;98259.63;5072855;28;20528;-73
2023/01/22 09:34:23;;;;;;;17.20;12.77;;;;;;;4.82;58.57;98264.50;5049572;28;20745;-73
2023/01/22 09:36:49;;;;;;;18.90;13.00;;;;;;;4.88;58.96;98271.97;5066408;28;20258;-72
2023/01/22 09:39:14;;;;;;;18.83;13.40;;;;;;;4.86;58.65;98266.00;5070207;28;20178;-72
2023/01/22 09:41:42;;;;;;;18.37;12.27;;;;;;;4.91;59.01;98267.41;5066746;28;20183;-72
2023/01/22 09:44:33;;;;;;;18.37;12.57;;;;;;;4.93;59.00;98272.50;5069887;28;20197;-72
2023/01/22 09:47:02;;;;;;;18.17;12.33;;;;;;;5.04;58.96;98264.91;5073495;28;20517;-72
2023/01/22 09:49:46;;;;;;;19.83;13.10;;;;;;;5.10;58.50;98268.06;5059526;28;20466;-72
2023/01/22 09:52:12;;;;;;;16.17;11.73;;;;;;;5.10;58.65;98262.88;5058523;28;20504;-71
2023/01/22 09:54:37;;;;;;;17.20;11.87;;;;;;;5.17;58.94;98269.38;5054862;28;20425;-73
2023/01/22 09:57:04;;;;;;;13.83;10.30;;;;;;;5.18;58.01;98273.66;5073127;28;20212;-73
2023/01/22 09:59:39;;;;;;;16.43;11.57;;;;;;;5.20;58.29;98274.41;5073147;28;20183;-73
2023/01/22 10:02:21;;;;;;;17.63;12.10;;;;;;;5.22;58.02;98267.34;5064594;28;20516;-72
2023/01/22 10:04:50;;;;;;;16.80;12.43;;;;;;;5.32;57.90;98278.84;5072278;28;20424;-73
2023/01/22 10:07:21;;;;;;;17.07;12.10;;;;;;;5.40;57.33;98275.78;5071506;28;20452;-72
2023/01/22 10:09:52;;;;;;;22.23;14.00;;;;;;;5.45;57.56;98272.91;5053710;28;20493;-74
2023/01/22 10:12:18;;;;;;;16.70;12.13;;;;;;;5.42;57.64;98283.50;5069245;28;20421;-74
2023/01/22 10:14:43;;;;;;;16.27;11.97;;;;;;;5.41;58.00;98289.63;5067510;28;20887;-71
2023/01/22 10:17:18;;;;;;;15.83;11.20;;;;;;;5.37;57.42;98283.75;5054349;28;20194;-70
2023/01/22 10:19:47;;;;;;;14.77;10.00;;;;;;;5.32;57.42;98285.81;5071033;28;20182;-72
2023/01/22 10:22:24;;;;;;;17.90;12.30;;;;;;;5.31;57.41;98291.94;5068897;28;20425;-69
2023/01/22 10:24:50;;;;;;;18.80;12.77;;;;;;;5.31;57.81;98278.97;5072734;28;20432;-70
2023/01/22 10:27:21;;;;;;;18.10;12.40;;;;;;;5.21;57.71;98284.72;5071078;28;20860;-69
2023/01/22 10:30:00;;;;;;;15.50;10.73;;;;;;;5.19;57.94;98289.16;5071398;28;20475;-71
2023/01/22 10:32:29;;;;;;;16.60;11.40;;;;;;;5.22;57.99;98293.34;5069227;28;20436;-72
2023/01/22 10:35:02;;;;;;;18.67;12.20;;;;;;;5.21;57.40;98289.91;5072903;28;20421;-73
2023/01/22 10:37:28;;;;;;;20.50;13.10;;;;;;;5.21;57.52;98299.47;5072166;28;20524;-72
2023/01/22 10:39:58;;;;;;;16.33;11.20;;;;;;;5.13;58.05;98294.72;5070727;28;20507;-71
2023/01/22 10:42:26;;;;;;;19.40;12.70;;;;;;;5.17;58.00;98296.22;5053233;28;20461;-72
2023/01/22 10:44:56;;;;;;;19.80;12.70;;;;;;;5.16;58.28;98294.53;5053689;28;20431;-71
2023/01/22 10:47:26;;;;;;;19.00;12.20;;;;;;;5.07;58.17;98301.13;5057074;28;20471;-70
2023/01/22 10:50:08;;;;;;;21.83;11.53;;;;;;;5.07;59.04;98295.91;5061902;28;20429;-71
2023/01/22 10:52:40;;;;;;;23.97;13.23;;;;;;;5.13;58.82;98293.91;5033490;28;20479;-71
2023/01/22 10:55:18;;;;;;;20.53;12.57;;;;;;;5.19;59.38;98303.91;5062004;28;20425;-72
2023/01/22 10:57:48;;;;;;;23.77;13.40;;;;;;;5.23;58.84;98295.00;5046222;28;20478;-72
2023/01/22 11:00:14;;;;;;;19.47;13.97;;;;;;;5.27;58.88;98299.09;5046540;28;20433;-70
2023/01/22 11:02:44;;;;;;;15.80;11.73;;;;;;;5.24;59.08;98301.88;5069352;28;20788;-71
2023/01/22 11:05:15;;;;;;;17.80;12.70;;;;;;;5.20;58.61;98301.25;5064642;28;20186;-70
2023/01/22 11:07:41;;;;;;;18.80;12.83;;;;;;;5.22;59.20;98299.38;5062006;28;20452;-73
2023/01/22 11:10:21;;;;;;;19.90;11.60;;;;;;;5.27;59.15;98295.66;5062185;28;20425;-69
2023/01/22 11:12:51;;;;;;;18.60;12.97;;;;;;;5.23;58.34;98289.81;5048782;28;20418;-70
2023/01/22 11:15:25;;;;;;;21.13;14.70;;;;;;;5.32;58.29;98293.63;5052859;28;20429;-72
2023/01/22 11:17:57;;;;;;;20.17;13.80;;;;;;;5.34;58.02;98295.19;5044362;28;20422;-72
2023/01/22 11:20:27;;;;;;;20.90;13.00;;;;;;;5.32;58.49;98294.44;5046210;28;20987;-71
2023/01/22 11:23:08;;;;;;;19.30;13.53;;;;;;;5.39;58.26;98297.50;5023747;28;20425;-72
2023/01/22 11:25:40;;;;;;;19.13;13.00;;;;;;;5.31;57.65;98303.19;5056137;28;20444;-71
2023/01/22 11:28:12;;;;;;;18.70;11.90;;;;;;;5.29;58.20;98299.00;5057145;28;20464;-74
2023/01/22 11:31:10;;;;;;;18.20;13.10;;;;;;;5.28;58.11;98302.53;5060060;28;20432;-73
2023/01/22 11:34:10;;;;;;;20.90;13.20;;;;;;;5.23;58.09;98310.59;5058760;28;20436;-73
2023/01/22 11:36:46;;;;;;;18.60;12.43;;;;;;;5.16;58.25;98302.34;5047450;28;20532;-73
2023/01/22 11:39:39;;;;;;;22.87;13.90;;;;;;;5.10;58.00;98304.47;5051155;28;20499;-71